MOL weather

Molde Airport
Årø, Møre og Romsdal, Norway

Public forecast

Using degrees Celsius for public forecast. Weather courtesy of forecast.io.

METAR (pilot weather report)

Retrieved 2019/05/19 16:20 UTC (32 minutes ago):

ENML 191620Z 14004KT 090V210 9999 FEW050 SCT085 17/12 Q1011

TAF (pilot weather forecast)

Forecast is more than 12 hours old.

Retrieved 2011/03/08 08:45 UTC (8 years ago):

TAF TAF ESDF 0808 FCNO33 ENMI 080800 RRC TAF ENML 080800Z 0809/0818 21015KT 9999 FEW030 BKN050 TEMPO 0809/0818 21022G35KT BECMG 0815/0818 21022G35KT TEMPO 0815/0818 4000 RADZ BKN012